Airfield :
LOGIN :

Register | Disclaimer

   EN    FR    IT 

 










Legend :    VFR   Marginal VFR   IFR   Intensive IFR   Very Intensive IFR
Visi :
Ceiling :
>= 8 km
>= 3000ft
5 to 8 km
1000 to 3000 ft
1500m to 5 km
500 to 1000 ft
800 to 1500m
200 to 500 ft
< 800m
< 200 ft
Symbols :   Thunderstorms  Fog  Heavy snow  Heavy precipitations  Wind > 20 kt
SIGMETs :     Misc.  Thunderstorms  Icing  Turbulence  Mountain Waves  Volcanic Ashes







- Airport Elevation : 202 ft
- IATA code : LGW
- Download approach charts


EGKK - London Gatwick

CURRENT METAR :
  • 230620Z 09004KT 0100 R08R/0400 FG VV/// 07/07 Q1034

EXPIRED METARs :
  • 230550Z 09005KT 0100 R08R/0325 FG VV/// 07/07 Q1034
  • 230520Z 08005KT 0150 R08R/0325 FG VV/// 07/07 Q1033
  • 230450Z 08003KT 0150 R08R/0325 FG VV/// 07/07 Q1033
  • 230420Z VRB03KT 0150 R08R/0300 FG VV/// 07/07 Q1033
  • 230350Z 06004KT 0200 R08R/0325 FG VV/// 07/07 Q1033

TAF TAF EGKK
Valid from the 23 at 06:00 until the 24 at 12:00 UTC


230452Z 2306/2412 09005KT 0200 FG VV///
TEMPO 2306/2308 2000 BR BKN001
BECMG 2308/2311 CAVOK
BECMG 2319/2322 8000
TEMPO 2322/2409 2000 BR
PROB30 2403/2409 0400 FG VV///
BECMG 2407/2410 9999
No reported NOTAMs for that airfield.



MET'MAP, your aeronautical weather chart ! - Copyright ORBIFLY December 2007 - Disclaimer

ORBIFLY MET'MAP TEAM :

Programming & Development : Alexandra Zaïnal
Concept & Development : Baudouin d'Aumeries
Co-Development & Prog : Marc-Olivier Méhu
Technical & hardware support : Manuel Goepfert

Contact : metmap@orbifly.com




SOURCES & CREDITS :

   NOAA